Latest Weather Observations for Mount Ginini

IDN60801

Issued at 8:04 am EDT Monday 2 February 2015 (issued every 30 minutes, with the page automatically refreshed every 10 minutes)

About weather observations | Map of weather stations | Latest weather observations for NSW | Other Formats
Station Details ID: 070349 Name: MOUNT GININI AWS Lat: -35.53 Lon: 148.77 Height: 1760.0 m
Data from the previous 72 hours. | See also: Recent months at Mount Ginini
Date/Time
EDT
Temp
°C
App
Temp
°C
Dew
Point
Rel
Hum
%
Delta-T
°C
Wind Press
QNH
hPa
Press
MSL
hPa
Rain
since 9 am
mm
Dir
 
Spd
km/h
Gust
km/h
Spd
kts
Gust
kts
02/08:00am 6.4 4.1 5.8 96 0.3 ESE 7 26 4 14 - - 11.6
02/07:30am 5.6 2.4 5.0 96 0.3 ESE 11 24 6 13 - - 11.6
02/07:00am 4.9 1.6 4.3 96 0.3 SE 11 24 6 13 - - 11.6
02/06:30am 4.9 1.2 4.2 95 0.3 SE 13 32 7 17 - - 11.6
02/06:00am 5.0 1.3 4.4 96 0.3 SE 13 28 7 15 - - 11.6
02/05:30am 4.9 2.3 4.3 96 0.3 SE 7 17 4 9 - - 11.6
02/05:00am 5.3 2.4 4.9 97 0.2 SE 9 15 5 8 - - 11.6
02/04:30am 5.3 2.5 5.0 98 0.1 SE 9 19 5 10 - - 11.6
02/04:00am 5.3 2.5 5.0 98 0.1 ESE 9 19 5 10 - - 11.6
02/03:30am 5.1 2.8 4.8 98 0.1 ESE 6 17 3 9 - - 11.6
02/03:00am 5.1 2.8 4.8 98 0.1 ESE 6 24 3 13 - - 11.6
02/02:30am 5.3 1.7 5.0 98 0.1 ESE 13 26 7 14 - - 11.6
02/02:00am 5.9 2.4 5.6 98 0.1 ESE 13 22 7 12 - - 11.6
02/01:30am 6.3 2.2 6.0 98 0.1 ESE 17 24 9 13 - - 11.6
02/01:00am 6.9 3.3 6.6 98 0.2 E 15 26 8 14 - - 11.6
02/12:30am 7.3 4.9 7.0 98 0.2 ESE 9 22 5 12 - - 11.6
02/12:00am 7.8 5.1 7.5 98 0.2 E 11 20 6 11 - - 11.6
 
Date/Time
EDT
Temp
°C
App
Temp
°C
Dew
Point
Rel
Hum
%
Delta-T
°C
Wind Press
QNH
hPa
Press
MSL
hPa
Rain
since 9 am
mm
Dir
 
Spd
km/h
Gust
km/h
Spd
kts
Gust
kts
01/11:30pm 7.8 5.1 7.5 98 0.2 E 11 22 6 12 - - 11.6
01/11:00pm 7.8 4.4 7.5 98 0.2 E 15 24 8 13 - - 11.6
01/10:30pm 8.0 4.6 7.7 98 0.2 E 15 22 8 12 - - 11.6
01/10:00pm 7.7 5.0 7.4 98 0.2 E 11 20 6 11 - - 11.2
01/09:30pm 7.6 4.5 7.3 98 0.2 E 13 19 7 10 - - 11.0
01/09:00pm 7.6 4.5 7.2 97 0.2 E 13 22 7 12 - - 11.0
01/08:30pm 7.4 4.5 6.7 95 0.4 E 11 17 6 9 - - 11.0
01/08:00pm 7.7 5.6 6.8 94 0.5 E 7 15 4 8 - - 11.0
01/07:30pm 8.0 5.7 7.4 96 0.3 E 9 19 5 10 - - 11.0
01/07:00pm 8.4 6.8 8.0 97 0.2 SE 6 13 3 7 - - 10.6
01/06:30pm 8.9 7.2 8.5 97 0.2 ESE 7 13 4 7 - - 10.6
01/06:00pm 8.0 6.3 7.4 96 0.3 ESE 6 13 3 7 - - 10.2
01/05:30pm 7.4 5.5 6.7 95 0.4 ESE 6 17 3 9 - - 8.0
01/05:00pm 7.4 5.3 6.7 95 0.4 ESE 7 13 4 7 - - 6.0
01/04:30pm 8.2 6.3 7.6 96 0.3 SE 7 13 4 7 - - 4.4
01/04:00pm 8.2 6.5 7.4 95 0.4 ESE 6 9 3 5 - - 3.8
01/03:30pm 8.7 6.5 7.8 94 0.5 E 9 17 5 9 - - 0.2
01/03:00pm 10.0 8.0 6.2 77 2.0 E 6 11 3 6 - - 0.0
01/02:30pm 12.8 10.8 8.5 75 2.4 NNW 9 15 5 8 - - 0.0
01/02:00pm 13.9 11.4 8.1 68 3.2 NW 11 22 6 12 - - 0.0
01/01:30pm 12.6 11.1 8.5 76 2.2 WNW 6 13 3 7 - - 0.0
01/01:00pm 13.3 11.9 9.0 75 2.4 W 6 13 3 7 - - 0.0
01/12:30pm 11.3 9.7 8.2 81 1.7 NW 6 11 3 6 - - 0.0
01/12:00pm 11.8 10.3 9.2 84 1.4 WNW 7 13 4 7 - - 0.0
01/11:30am 11.3 10.1 9.6 89 0.9 WNW 6 11 3 6 - - 0.0
01/11:00am 10.8 9.6 9.7 93 0.6 W 6 11 3 6 - - 0.0
01/10:30am 10.1 8.7 8.9 92 0.7 W 6 11 3 6 - - 0.0
01/10:00am 9.7 8.3 8.8 94 0.5 WNW 6 11 3 6 - - 0.0
01/09:30am 9.7 8.7 8.8 94 0.5 WNW 4 9 2 5 - - 0.0
01/09:00am 9.0 8.3 8.4 96 0.3 NNW 2 7 1 4 - - 0.2
01/08:30am 8.8 7.7 8.4 97 0.2 N 4 9 2 5 - - 0.2
01/08:00am 8.2 7.0 7.9 98 0.2 NW 4 11 2 6 - - 0.2
01/07:30am 7.5 5.7 7.2 98 0.2 NNW 6 11 3 6 - - 0.2
01/07:00am 7.2 5.7 6.9 98 0.2 N 4 7 2 4 - - 0.2
01/06:30am 7.2 5.3 6.9 98 0.2 NNW 6 9 3 5 - - 0.2
01/06:00am 7.2 5.3 6.9 98 0.2 NNW 6 9 3 5 - - 0.2
01/05:30am 7.3 6.2 7.0 98 0.2 NNW 2 4 1 2 - - 0.2
01/05:00am 7.4 6.0 7.1 98 0.2 NNW 4 7 2 4 - - 0.2
01/04:30am 7.3 5.8 7.0 98 0.2 N 4 6 2 3 - - 0.2
01/04:00am 7.1 6.0 6.7 97 0.2 NE 2 4 1 2 - - 0.2
01/03:30am 6.8 5.6 6.4 97 0.2 ESE 2 6 1 3 - - 0.2
01/03:00am 7.1 5.9 6.5 96 0.3 E 2 6 1 3 - - 0.2
01/02:30am 7.3 6.1 6.6 95 0.4 NNE 2 4 1 2 - - 0.2
01/02:00am 7.6 5.5 6.5 93 0.6 S 7 11 4 6 - - 0.2
01/01:30am 7.1 4.5 6.2 94 0.5 S 9 13 5 7 - - 0.2
01/01:00am 7.3 5.4 6.9 97 0.2 SSE 6 11 3 6 - - 0.2
01/12:30am 7.1 5.1 6.4 95 0.4 E 6 7 3 4 - - 0.2
01/12:00am 7.7 5.3 6.8 94 0.5 S 9 13 5 7 - - 0.2
 
Date/Time
EDT
Temp
°C
App
Temp
°C
Dew
Point
Rel
Hum
%
Delta-T
°C
Wind Press
QNH
hPa
Press
MSL
hPa
Rain
since 9 am
mm
Dir
 
Spd
km/h
Gust
km/h
Spd
kts
Gust
kts
31/11:30pm 8.1 6.7 7.2 94 0.5 SSE 4 9 2 5 - - 0.2
31/11:00pm 8.2 5.5 7.3 94 0.5 S 11 19 6 10 - - 0.2
31/10:30pm 8.3 6.0 7.4 94 0.5 SSW 9 13 5 7 - - 0.2
31/10:00pm 8.4 5.4 7.5 94 0.5 SSW 13 19 7 10 - - 0.2
31/09:30pm 8.3 5.2 7.4 94 0.5 SW 13 19 7 10 - - 0.2
31/09:00pm 8.0 4.9 7.1 94 0.5 SSW 13 22 7 12 - - 0.2
31/08:30pm 8.3 4.8 7.2 93 0.6 SSW 15 26 8 14 - - 0.2
31/08:00pm 8.9 5.5 7.8 93 0.6 SW 15 24 8 13 - - 0.2
31/07:30pm 9.7 6.9 8.6 93 0.6 SSW 13 24 7 13 - - 0.2
31/07:00pm 10.2 7.9 9.1 93 0.6 SSW 11 19 6 10 - - 0.2
31/06:30pm 11.2 9.4 9.6 90 0.9 SW 9 20 5 11 - - 0.2
31/06:00pm 11.9 9.6 10.6 92 0.7 SSW 13 20 7 11 - - 0.2
31/05:30pm 10.7 8.6 9.9 95 0.4 SSW 11 19 6 10 - - 0.2
31/05:00pm 10.0 8.5 9.1 94 0.5 SW 7 19 4 10 - - 0.2
31/04:30pm 10.7 9.6 9.9 95 0.4 SSE 6 11 3 6 - - 0.2
31/04:00pm 8.9 7.1 8.1 95 0.4 SSE 7 13 4 7 - - 0.2
31/03:30pm 9.7 9.1 8.8 94 0.5 ESE 2 7 1 4 - - 0.2
31/03:00pm 10.7 9.8 7.9 83 1.5 SE 2 7 1 4 - - 0.0
31/02:30pm 11.4 9.5 6.9 74 2.4 WNW 6 11 3 6 - - 0.0
31/02:00pm 12.3 10.2 6.6 68 3.0 WSW 7 13 4 7 - - 0.0
31/01:30pm 13.9 11.6 7.4 65 3.5 W 9 20 5 11 - - 0.0
31/01:00pm 12.2 9.9 5.8 65 3.3 W 7 17 4 9 - - 0.0
31/12:30pm 11.8 9.4 5.2 64 3.4 W 7 13 4 7 - - 0.0
31/12:00pm 12.0 9.8 6.1 67 3.1 SW 7 17 4 9 - - 0.0
31/11:30am 11.1 8.2 4.8 65 3.2 W 9 17 5 9 - - 0.0
31/11:00am 11.4 9.1 5.5 67 3.0 W 7 17 4 9 - - 0.0
31/10:30am 11.1 8.7 5.4 68 2.9 SW 7 17 4 9 - - 0.0
31/10:00am 9.8 7.4 5.4 74 2.2 SW 7 11 4 6 - - 0.0
31/09:30am 9.0 6.6 4.4 73 2.3 SW 6 11 3 6 - - 0.0
31/09:00am 8.7 6.3 4.5 75 2.1 SSW 6 9 3 5 - - 0.0
31/08:30am 8.7 6.8 4.9 77 1.9 SE 4 11 2 6 - - 0.0
31/08:00am 7.7 6.3 5.5 86 1.1 SE 2 7 1 4 - - 0.0
31/07:30am 6.2 3.5 5.5 95 0.3 SSE 9 13 5 7 - - 0.0
31/07:00am 4.5 2.1 4.1 97 0.2 SW 6 9 3 5 - - 0.0
31/06:30am 4.0 0.9 3.4 96 0.3 WSW 9 17 5 9 - - 0.0
31/06:00am 4.8 1.9 4.4 97 0.2 SW 9 15 5 8 - - 0.0
31/05:30am 4.7 1.7 4.3 97 0.2 SW 9 17 5 9 - - 0.0
31/05:00am 4.3 1.6 3.9 97 0.2 WSW 7 13 4 7 - - 0.0
31/04:30am 4.6 1.2 4.0 96 0.3 WSW 11 19 6 10 - - 0.0
31/04:00am 4.8 1.4 4.1 95 0.3 WSW 11 19 6 10 - - 0.0
31/03:30am 4.7 1.7 4.0 95 0.3 WSW 9 15 5 8 - - 0.0
31/03:00am 5.7 3.2 4.8 94 0.4 WSW 7 13 4 7 - - 0.0
31/02:30am 5.2 2.6 4.3 94 0.4 WSW 7 15 4 8 - - 0.0
31/02:00am 5.4 3.0 4.4 93 0.5 WSW 6 9 3 5 - - 0.0
31/01:30am 5.4 3.0 4.4 93 0.5 SW 6 7 3 4 - - 0.0
31/01:00am 5.3 2.9 4.4 94 0.4 SW 6 7 3 4 - - 0.0
31/12:30am 5.2 2.8 4.3 94 0.4 SW 6 9 3 5 - - 0.0
31/12:00am 5.2 2.2 4.3 94 0.4 SSW 9 13 5 7 - - 0.0
 
Date/Time
EDT
Temp
°C
App
Temp
°C
Dew
Point
Rel
Hum
%
Delta-T
°C
Wind Press
QNH
hPa
Press
MSL
hPa
Rain
since 9 am
mm
Dir
 
Spd
km/h
Gust
km/h
Spd
kts
Gust
kts
30/11:30pm 5.2 2.2 4.3 94 0.4 SSW 9 13 5 7 - - 0.0
30/11:00pm 5.3 2.0 4.6 95 0.3 S 11 15 6 8 - - 0.0
30/10:30pm 5.3 2.0 4.7 96 0.3 S 11 17 6 9 - - 0.0
30/10:00pm 4.7 1.3 4.1 96 0.3 SSE 11 13 6 7 - - 0.0
30/09:30pm 5.6 2.4 4.9 95 0.3 S 11 19 6 10 - - 0.0
30/09:00pm 5.7 1.7 5.1 96 0.3 S 15 20 8 11 - - 0.0
30/08:30pm 6.0 3.3 5.4 96 0.3 SSE 9 15 5 8 - - 0.0
30/08:00pm 6.4 3.7 5.5 94 0.4 SSE 9 17 5 9 - - 0.0
30/07:30pm 7.4 4.8 6.3 93 0.6 SSE 9 15 5 8 - - 0.0
30/07:00pm 7.6 4.3 6.5 93 0.6 S 13 20 7 11 - - 0.0
30/06:30pm 8.7 5.7 6.0 83 1.4 SSW 11 24 6 13 - - 0.0
30/06:00pm 10.0 6.3 6.2 77 2.0 SSW 15 26 8 14 - - 0.0
30/05:30pm 8.7 4.9 5.6 81 1.6 SSW 15 24 8 13 - - 0.0
30/05:00pm 10.1 6.8 6.6 79 1.8 SSW 13 24 7 13 - - 0.0
30/04:30pm 8.9 5.9 6.2 83 1.4 SSW 11 19 6 10 - - 0.0
30/04:00pm 8.8 6.6 7.9 94 0.5 SW 9 19 5 10 - - 0.0
30/03:30pm 9.0 6.9 8.1 94 0.5 WSW 9 22 5 12 - - 0.0
30/03:00pm 9.9 7.2 5.5 74 2.2 WSW 9 24 5 13 - - 0.0
30/02:30pm 8.7 4.3 4.9 77 1.9 SSW 17 32 9 17 - - 0.0
30/02:00pm 9.4 7.0 4.2 70 2.5 SE 6 11 3 6 - - 0.0
30/01:30pm 9.3 5.8 3.5 67 2.8 SSW 11 20 6 11 - - 0.0
30/01:00pm 10.0 4.8 3.5 64 3.2 S 20 37 11 20 - - 0.0
30/12:30pm 8.2 3.6 3.7 73 2.2 S 17 26 9 14 - - 0.0
30/12:00pm 7.7 4.2 3.6 75 2.0 SSW 11 20 6 11 - - 0.0
30/11:30am 8.2 4.2 2.9 69 2.5 SW 13 22 7 12 - - 0.0
30/11:00am 8.5 5.1 3.9 73 2.2 SSW 11 20 6 11 - - 0.0
30/10:30am 8.9 6.1 5.1 77 1.9 S 9 19 5 10 - - 0.0
30/10:00am 8.3 5.1 3.2 70 2.4 S 9 17 5 9 - - 0.0
30/09:30am 7.9 5.3 3.2 72 2.2 SSW 6 17 3 9 - - 0.0
30/09:00am 6.3 3.9 5.3 93 0.5 SE 7 22 4 12 - - 0.0
30/08:30am 4.7 1.6 3.7 93 0.5 SSE 9 17 5 9 - - 0.0

Other Formats:

Comma delimited format used in spreadsheet applications
http://www.bom.gov.au/fwo/IDN60801/IDN60801.95925.axf

JavaScript Object Notation format (JSON) in row-major order
http://www.bom.gov.au/fwo/IDN60801/IDN60801.95925.json